X  CloseMetar Aviation Weather Data     KRYV Watertown Municipal

Temperature

61°F Temperature

54°F Dewpoint

77% Humidity



Wind

16 MPH

26 KM/H

 7 M/S

14 KTS



350°
Due North
Current Conditions

Light Rain Light Rain
Pressure 1006.12 (hPa) - 29.71 (in)
Visibility 10 (mi) - 16.1 (km)
Airport
Airport-code KRYV

Location Watertown Municipal 18 (mi)

Metar:
KRYV 251955Z AUTO 35014G18KT 10SM -RA SCT039 BKN047 OVC060 16/12 A2971 RMK AO2 P0001 T01630124

Time: 04-25-2019 2:55